TAF and METAR

No METAR available for Brest Airport

TAF for Brest Airport

TAF UMBB 141405Z 1415/1424 05005MPS 4000 BR BKN007 TX00/1415Z TNM01/1424Z TEMPO 1418/1424 2000 SHSN BR BKN005 SCT015CB
Report created 14. des 15:05

between 14. des 16:00 - 14. des 01:00

wind 10 knots from NE (050°) visibility 4000 meters mist broken clouds (~75% cover) at 700 feet Max temperature 00° expected today at around 16 o'clock Min temperature -01° expected tomorrow at around 01 o'clock

temporarily between 14. des 19:00 - 14. des 01:00

visibility 2000 meters snow showers mist broken clouds (~75% cover) at 500 feet scattered clouds (~50% cover) at 1500 feet of type cumulonimbus
Brest Airport in Belarus at 143m

Latest 5 airports